Abbeville, AL

9:52 AM CST on February 09, 2016 (GMT -0600)
APRSWXNET | | Change Station
CLOSE
Current Station
Personal Weather Station
Location: Clopton, AL
Elevation: 364 ft
Nearby Weather Stations
Active Advisory: Freeze Warning

Elev 364 ft 31.65 °N, 85.35 °W | Updated 34 minutes ago

Clear
Clear
40 °F
Feels Like 32 °F
N
15
Wind Variable Wind from NW
Gusts 25.0 mph

Today
High -- | Low -- °F
--% Chance of Precip.
Yesterday
High -- | Low -- °F
Precip. -- in
Pressure 30.04 in
Visibility 10.0 miles
Clouds Clear
Windchill 32 °F
Dew Point 28 °F
Humidity 63%
Rainfall in
Snow Depth Not available.
6:28 AM 5:22 PM
New Moon, 1% visible
METAR KDHN 091453Z 27011KT 10SM CLR 05/M06 A3004 RMK AO2 SLP172 T00501061 50006
Pressure 30.04 in
Visibility 10.0 miles
Clouds Clear
Windchill 32 °F
Dew Point 28 °F
Humidity 63%
Rainfall in
Snow Depth Not available.
6:28 AM 5:22 PM
New Moon, 1% visible
METAR KDHN 091453Z 27011KT 10SM CLR 05/M06 A3004 RMK AO2 SLP172 T00501061 50006

10-Day Weather Forecast

Almanac

Astronomy

Feb. 09, 2016 Rise Set
Actual Time
Civil Twilight
Nautical Twilight
Astronomical Twilight
Moon
Length of Visible Light
Length of Day
Tomorrow will be .
, % of the Moon is Illuminated

Today's Extremes

State Highs State Lows

Community

WunderPhotos

Upload Photos

1,891,628 photos uploaded!

WunderBlog® & News

Nearby

Air Quality

  Air Quality AQ Index Pollutant
Not available.

Snow Depth

Station Depth Elevation

Earthquake Activity

City Distance Mag. Time & Date
Minimum magnitude displayed is 2.5.

Coastal Water Temperatures

Place Temperature

Stations

Nearby Weather Stations

Station Location Temp. Windchill Dew Point Humidity Wind Precip. Elev Updated Type
                   

Watches & Warnings

Freeze Warning
Issued: 2:30 AM CST Feb. 9, 2016 – National Weather Service

... Freeze warning in effect from 11 PM EST /10 PM CST/ this
evening to 9 am EST /8 am CST/ Wednesday...

The National Weather Service in Tallahassee has issued a freeze
warning... which is in effect from 11 PM EST /10 PM CST/ this
evening to 9 am EST /8 am CST/ Wednesday. The freeze watch is no
longer in effect.

* Minimum temperatures... 26 to 30 degrees.

* Freeze durations... from 10 hours over southeast Alabama to
around 3 hours south of Interstate 10.

Precautionary/preparedness actions...

A freeze warning means sub-freezing temperatures are imminent or
highly likely. These conditions will kill crops and other
sensitive vegetation.